sensor_id;sensor_type;location;lat;lon;timestamp;P1;durP1;ratioP1;P2;durP2;ratioP2
78670;SDS011;68277;52.724;6.516;2023-04-25T00:01:05;9.65;;;2.00;;
78670;SDS011;68277;52.724;6.516;2023-04-25T00:03:31;6.75;;;3.20;;
78670;SDS011;68277;52.724;6.516;2023-04-25T00:05:58;5.20;;;1.50;;
78670;SDS011;68277;52.724;6.516;2023-04-25T00:08:28;7.47;;;1.83;;
78670;SDS011;68277;52.724;6.516;2023-04-25T00:10:54;16.42;;;2.78;;
78670;SDS011;68277;52.724;6.516;2023-04-25T00:13:20;8.25;;;1.75;;
78670;SDS011;68277;52.724;6.516;2023-04-25T00:15:46;6.22;;;2.00;;
78670;SDS011;68277;52.724;6.516;2023-04-25T00:18:13;3.90;;;1.60;;
78670;SDS011;68277;52.724;6.516;2023-04-25T00:20:39;3.30;;;1.48;;
78670;SDS011;68277;52.724;6.516;2023-04-25T00:23:05;2.50;;;1.27;;
78670;SDS011;68277;52.724;6.516;2023-04-25T00:25:30;9.18;;;2.35;;
78670;SDS011;68277;52.724;6.516;2023-04-25T00:27:56;7.32;;;1.67;;
78670;SDS011;68277;52.724;6.516;2023-04-25T00:30:23;5.30;;;2.00;;
78670;SDS011;68277;52.724;6.516;2023-04-25T00:32:49;12.45;;;3.17;;
78670;SDS011;68277;52.724;6.516;2023-04-25T00:35:15;7.05;;;1.83;;
78670;SDS011;68277;52.724;6.516;2023-04-25T00:37:40;6.03;;;1.90;;
78670;SDS011;68277;52.724;6.516;2023-04-25T00:40:06;4.03;;;1.67;;
78670;SDS011;68277;52.724;6.516;2023-04-25T00:42:32;3.40;;;1.38;;
78670;SDS011;68277;52.724;6.516;2023-04-25T00:44:58;4.43;;;1.38;;
78670;SDS011;68277;52.724;6.516;2023-04-25T00:47:25;2.40;;;1.27;;
78670;SDS011;68277;52.724;6.516;2023-04-25T00:49:50;8.52;;;1.65;;
78670;SDS011;68277;52.724;6.516;2023-04-25T00:52:16;6.25;;;2.00;;
78670;SDS011;68277;52.724;6.516;2023-04-25T00:54:43;3.45;;;1.85;;
78670;SDS011;68277;52.724;6.516;2023-04-25T00:57:08;15.02;;;2.47;;
78670;SDS011;68277;52.724;6.516;2023-04-25T00:59:34;3.60;;;1.40;;
78670;SDS011;68277;52.724;6.516;2023-04-25T01:02:02;10.13;;;2.42;;
78670;SDS011;68277;52.724;6.516;2023-04-25T01:04:27;6.45;;;1.73;;
78670;SDS011;68277;52.724;6.516;2023-04-25T01:06:53;12.18;;;1.95;;
78670;SDS011;68277;52.724;6.516;2023-04-25T01:09:19;7.05;;;2.53;;
78670;SDS011;68277;52.724;6.516;2023-04-25T01:11:45;11.43;;;3.05;;
78670;SDS011;68277;52.724;6.516;2023-04-25T01:14:11;12.73;;;2.47;;
78670;SDS011;68277;52.724;6.516;2023-04-25T01:16:36;14.68;;;1.98;;
78670;SDS011;68277;52.724;6.516;2023-04-25T01:19:05;9.98;;;2.28;;
78670;SDS011;68277;52.724;6.516;2023-04-25T01:21:36;7.50;;;1.67;;
78670;SDS011;68277;52.724;6.516;2023-04-25T01:24:01;3.65;;;1.75;;
78670;SDS011;68277;52.724;6.516;2023-04-25T01:26:28;3.28;;;1.95;;
78670;SDS011;68277;52.724;6.516;2023-04-25T01:28:53;11.85;;;2.95;;
78670;SDS011;68277;52.724;6.516;2023-04-25T01:31:20;9.02;;;2.05;;
78670;SDS011;68277;52.724;6.516;2023-04-25T01:33:46;8.35;;;2.40;;
78670;SDS011;68277;52.724;6.516;2023-04-25T01:36:14;12.48;;;2.17;;
78670;SDS011;68277;52.724;6.516;2023-04-25T01:38:40;5.78;;;2.30;;
78670;SDS011;68277;52.724;6.516;2023-04-25T01:41:06;4.53;;;1.50;;
78670;SDS011;68277;52.724;6.516;2023-04-25T01:43:32;6.13;;;2.42;;
78670;SDS011;68277;52.724;6.516;2023-04-25T01:45:58;8.02;;;2.10;;
78670;SDS011;68277;52.724;6.516;2023-04-25T01:48:24;7.10;;;2.05;;
78670;SDS011;68277;52.724;6.516;2023-04-25T01:50:50;8.05;;;1.95;;
78670;SDS011;68277;52.724;6.516;2023-04-25T01:53:16;7.38;;;2.58;;
78670;SDS011;68277;52.724;6.516;2023-04-25T01:55:44;6.82;;;2.42;;
78670;SDS011;68277;52.724;6.516;2023-04-25T01:58:14;4.85;;;2.13;;
78670;SDS011;68277;52.724;6.516;2023-04-25T02:01:11;4.95;;;1.60;;
78670;SDS011;68277;52.724;6.516;2023-04-25T02:03:43;10.85;;;2.05;;
78670;SDS011;68277;52.724;6.516;2023-04-25T02:06:19;11.68;;;2.30;;
78670;SDS011;68277;52.724;6.516;2023-04-25T02:08:46;9.52;;;1.75;;
78670;SDS011;68277;52.724;6.516;2023-04-25T02:11:15;5.72;;;1.17;;
78670;SDS011;68277;52.724;6.516;2023-04-25T02:13:46;12.13;;;2.00;;
78670;SDS011;68277;52.724;6.516;2023-04-25T02:16:18;8.10;;;1.92;;
78670;SDS011;68277;52.724;6.516;2023-04-25T02:18:44;13.18;;;1.98;;
78670;SDS011;68277;52.724;6.516;2023-04-25T02:21:10;7.78;;;1.40;;
78670;SDS011;68277;52.724;6.516;2023-04-25T02:23:36;14.65;;;2.17;;
78670;SDS011;68277;52.724;6.516;2023-04-25T02:26:02;4.47;;;1.35;;
78670;SDS011;68277;52.724;6.516;2023-04-25T02:28:28;5.47;;;1.70;;
78670;SDS011;68277;52.724;6.516;2023-04-25T02:30:54;4.10;;;1.17;;
78670;SDS011;68277;52.724;6.516;2023-04-25T02:33:20;16.58;;;1.92;;
78670;SDS011;68277;52.724;6.516;2023-04-25T02:35:46;9.55;;;1.88;;
78670;SDS011;68277;52.724;6.516;2023-04-25T02:38:12;6.20;;;1.27;;
78670;SDS011;68277;52.724;6.516;2023-04-25T02:43:05;10.00;;;1.65;;
78670;SDS011;68277;52.724;6.516;2023-04-25T02:45:32;10.23;;;1.65;;
78670;SDS011;68277;52.724;6.516;2023-04-25T02:47:57;2.58;;;0.90;;
78670;SDS011;68277;52.724;6.516;2023-04-25T02:50:23;11.73;;;2.33;;
78670;SDS011;68277;52.724;6.516;2023-04-25T02:52:48;5.40;;;1.60;;
78670;SDS011;68277;52.724;6.516;2023-04-25T02:55:19;3.55;;;1.30;;
78670;SDS011;68277;52.724;6.516;2023-04-25T02:57:46;2.17;;;1.20;;
78670;SDS011;68277;52.724;6.516;2023-04-25T03:00:18;11.27;;;1.58;;
78670;SDS011;68277;52.724;6.516;2023-04-25T03:02:44;16.88;;;1.67;;
78670;SDS011;68277;52.724;6.516;2023-04-25T03:05:10;6.65;;;0.80;;
78670;SDS011;68277;52.724;6.516;2023-04-25T03:10:05;3.97;;;1.83;;
78670;SDS011;68277;52.724;6.516;2023-04-25T03:12:33;1.75;;;0.88;;
78670;SDS011;68277;52.724;6.516;2023-04-25T03:14:58;4.43;;;0.93;;
78670;SDS011;68277;52.724;6.516;2023-04-25T03:17:24;4.72;;;0.82;;
78670;SDS011;68277;52.724;6.516;2023-04-25T03:19:50;1.75;;;0.70;;
78670;SDS011;68277;52.724;6.516;2023-04-25T03:22:16;3.97;;;2.35;;
78670;SDS011;68277;52.724;6.516;2023-04-25T03:24:41;4.15;;;0.98;;
78670;SDS011;68277;52.724;6.516;2023-04-25T03:27:07;1.20;;;0.63;;
78670;SDS011;68277;52.724;6.516;2023-04-25T03:29:32;3.17;;;1.40;;
78670;SDS011;68277;52.724;6.516;2023-04-25T03:32:02;5.35;;;0.82;;
78670;SDS011;68277;52.724;6.516;2023-04-25T03:34:28;5.10;;;1.40;;
78670;SDS011;68277;52.724;6.516;2023-04-25T03:36:54;3.50;;;1.38;;
78670;SDS011;68277;52.724;6.516;2023-04-25T03:39:20;6.32;;;1.98;;
78670;SDS011;68277;52.724;6.516;2023-04-25T03:41:49;7.85;;;1.70;;
78670;SDS011;68277;52.724;6.516;2023-04-25T03:44:17;2.78;;;1.13;;
78670;SDS011;68277;52.724;6.516;2023-04-25T03:46:43;11.27;;;1.33;;
78670;SDS011;68277;52.724;6.516;2023-04-25T03:49:09;2.88;;;0.73;;
78670;SDS011;68277;52.724;6.516;2023-04-25T03:51:53;2.55;;;1.20;;
78670;SDS011;68277;52.724;6.516;2023-04-25T03:54:18;5.00;;;1.67;;
78670;SDS011;68277;52.724;6.516;2023-04-25T03:56:53;10.85;;;1.80;;
78670;SDS011;68277;52.724;6.516;2023-04-25T03:59:21;4.13;;;1.60;;
78670;SDS011;68277;52.724;6.516;2023-04-25T04:01:47;0.57;;;0.47;;
78670;SDS011;68277;52.724;6.516;2023-04-25T04:04:13;9.63;;;1.45;;
78670;SDS011;68277;52.724;6.516;2023-04-25T04:06:38;2.13;;;0.63;;
78670;SDS011;68277;52.724;6.516;2023-04-25T04:09:11;1.65;;;1.10;;
78670;SDS011;68277;52.724;6.516;2023-04-25T04:11:40;0.77;;;0.63;;
78670;SDS011;68277;52.724;6.516;2023-04-25T04:14:06;2.28;;;0.82;;
78670;SDS011;68277;52.724;6.516;2023-04-25T04:16:32;1.60;;;0.80;;
78670;SDS011;68277;52.724;6.516;2023-04-25T04:18:58;4.47;;;1.10;;
78670;SDS011;68277;52.724;6.516;2023-04-25T04:21:24;2.00;;;0.95;;
78670;SDS011;68277;52.724;6.516;2023-04-25T04:23:50;6.80;;;0.95;;
78670;SDS011;68277;52.724;6.516;2023-04-25T04:26:15;2.10;;;0.57;;
78670;SDS011;68277;52.724;6.516;2023-04-25T04:28:55;4.97;;;1.20;;
78670;SDS011;68277;52.724;6.516;2023-04-25T04:31:39;9.52;;;1.13;;
78670;SDS011;68277;52.724;6.516;2023-04-25T04:34:05;0.68;;;0.60;;
78670;SDS011;68277;52.724;6.516;2023-04-25T04:38:58;3.92;;;0.65;;
78670;SDS011;68277;52.724;6.516;2023-04-25T04:41:34;2.58;;;0.73;;
78670;SDS011;68277;52.724;6.516;2023-04-25T04:44:29;1.75;;;1.10;;
78670;SDS011;68277;52.724;6.516;2023-04-25T04:47:16;1.25;;;1.02;;
78670;SDS011;68277;52.724;6.516;2023-04-25T04:50:14;0.85;;;0.73;;
78670;SDS011;68277;52.724;6.516;2023-04-25T04:53:11;7.15;;;0.95;;
78670;SDS011;68277;52.724;6.516;2023-04-25T04:56:07;4.60;;;1.15;;
78670;SDS011;68277;52.724;6.516;2023-04-25T04:58:51;8.32;;;1.15;;
78670;SDS011;68277;52.724;6.516;2023-04-25T05:01:20;3.25;;;1.25;;
78670;SDS011;68277;52.724;6.516;2023-04-25T05:04:14;5.55;;;0.60;;
78670;SDS011;68277;52.724;6.516;2023-04-25T05:07:06;6.32;;;1.77;;
78670;SDS011;68277;52.724;6.516;2023-04-25T05:09:52;2.30;;;1.00;;
78670;SDS011;68277;52.724;6.516;2023-04-25T05:12:36;5.82;;;1.45;;
78670;SDS011;68277;52.724;6.516;2023-04-25T05:15:20;6.05;;;1.40;;
78670;SDS011;68277;52.724;6.516;2023-04-25T05:18:04;6.97;;;1.55;;
78670;SDS011;68277;52.724;6.516;2023-04-25T05:20:47;5.72;;;1.02;;
78670;SDS011;68277;52.724;6.516;2023-04-25T05:23:22;5.10;;;0.90;;
78670;SDS011;68277;52.724;6.516;2023-04-25T05:26:11;6.88;;;2.42;;
78670;SDS011;68277;52.724;6.516;2023-04-25T05:29:01;0.88;;;0.43;;
78670;SDS011;68277;52.724;6.516;2023-04-25T05:31:50;1.98;;;1.08;;
78670;SDS011;68277;52.724;6.516;2023-04-25T05:34:16;3.45;;;1.15;;
78670;SDS011;68277;52.724;6.516;2023-04-25T05:36:51;6.80;;;1.48;;
78670;SDS011;68277;52.724;6.516;2023-04-25T05:39:16;2.47;;;1.48;;
78670;SDS011;68277;52.724;6.516;2023-04-25T05:42:00;7.28;;;1.48;;
78670;SDS011;68277;52.724;6.516;2023-04-25T05:44:45;2.75;;;0.88;;
78670;SDS011;68277;52.724;6.516;2023-04-25T05:47:33;6.03;;;1.10;;
78670;SDS011;68277;52.724;6.516;2023-04-25T05:50:04;2.17;;;1.15;;
78670;SDS011;68277;52.724;6.516;2023-04-25T05:52:49;6.15;;;1.25;;
78670;SDS011;68277;52.724;6.516;2023-04-25T05:55:34;3.92;;;1.35;;
78670;SDS011;68277;52.724;6.516;2023-04-25T05:58:09;12.02;;;1.63;;
78670;SDS011;68277;52.724;6.516;2023-04-25T06:00:35;8.43;;;1.80;;
78670;SDS011;68277;52.724;6.516;2023-04-25T06:03:01;3.50;;;1.10;;
78670;SDS011;68277;52.724;6.516;2023-04-25T06:05:26;4.03;;;0.88;;
78670;SDS011;68277;52.724;6.516;2023-04-25T06:07:55;7.55;;;1.38;;
78670;SDS011;68277;52.724;6.516;2023-04-25T06:10:23;3.25;;;0.85;;
78670;SDS011;68277;52.724;6.516;2023-04-25T06:12:49;1.40;;;0.63;;
78670;SDS011;68277;52.724;6.516;2023-04-25T06:15:16;2.70;;;1.05;;
78670;SDS011;68277;52.724;6.516;2023-04-25T06:17:41;2.72;;;1.65;;
78670;SDS011;68277;52.724;6.516;2023-04-25T06:20:07;8.23;;;1.13;;
78670;SDS011;68277;52.724;6.516;2023-04-25T06:22:33;1.88;;;0.73;;
78670;SDS011;68277;52.724;6.516;2023-04-25T06:24:59;5.63;;;1.27;;
78670;SDS011;68277;52.724;6.516;2023-04-25T06:27:26;2.00;;;1.17;;
78670;SDS011;68277;52.724;6.516;2023-04-25T06:29:53;3.92;;;1.02;;
78670;SDS011;68277;52.724;6.516;2023-04-25T06:32:19;2.17;;;0.93;;
78670;SDS011;68277;52.724;6.516;2023-04-25T06:34:46;5.10;;;1.33;;
78670;SDS011;68277;52.724;6.516;2023-04-25T06:37:11;12.50;;;1.15;;
78670;SDS011;68277;52.724;6.516;2023-04-25T06:39:37;3.72;;;0.98;;
78670;SDS011;68277;52.724;6.516;2023-04-25T06:42:03;3.67;;;1.35;;
78670;SDS011;68277;52.724;6.516;2023-04-25T06:44:50;2.30;;;1.08;;
78670;SDS011;68277;52.724;6.516;2023-04-25T06:47:17;2.75;;;0.63;;
78670;SDS011;68277;52.724;6.516;2023-04-25T06:49:42;1.30;;;1.05;;
78670;SDS011;68277;52.724;6.516;2023-04-25T06:52:09;4.47;;;0.57;;
78670;SDS011;68277;52.724;6.516;2023-04-25T06:54:36;4.78;;;0.70;;
78670;SDS011;68277;52.724;6.516;2023-04-25T06:57:24;2.15;;;1.00;;
78670;SDS011;68277;52.724;6.516;2023-04-25T06:59:50;4.65;;;0.90;;
78670;SDS011;68277;52.724;6.516;2023-04-25T07:02:16;3.00;;;0.68;;
78670;SDS011;68277;52.724;6.516;2023-04-25T07:04:42;3.00;;;1.30;;
78670;SDS011;68277;52.724;6.516;2023-04-25T07:07:08;3.38;;;0.68;;
78670;SDS011;68277;52.724;6.516;2023-04-25T07:09:41;0.73;;;0.55;;
78670;SDS011;68277;52.724;6.516;2023-04-25T07:12:06;4.38;;;1.08;;
78670;SDS011;68277;52.724;6.516;2023-04-25T07:14:33;1.27;;;0.90;;
78670;SDS011;68277;52.724;6.516;2023-04-25T07:16:59;6.18;;;1.48;;
78670;SDS011;68277;52.724;6.516;2023-04-25T07:19:26;1.85;;;0.85;;
78670;SDS011;68277;52.724;6.516;2023-04-25T07:21:57;10.68;;;1.10;;
78670;SDS011;68277;52.724;6.516;2023-04-25T07:26:49;2.53;;;0.40;;
78670;SDS011;68277;52.724;6.516;2023-04-25T07:29:35;0.98;;;0.47;;
78670;SDS011;68277;52.724;6.516;2023-04-25T07:32:02;2.55;;;0.52;;
78670;SDS011;68277;52.724;6.516;2023-04-25T07:34:28;0.88;;;0.60;;
78670;SDS011;68277;52.724;6.516;2023-04-25T07:36:55;2.17;;;0.55;;
78670;SDS011;68277;52.724;6.516;2023-04-25T07:39:22;2.80;;;0.52;;
78670;SDS011;68277;52.724;6.516;2023-04-25T07:41:48;3.70;;;1.20;;
78670;SDS011;68277;52.724;6.516;2023-04-25T07:44:20;1.70;;;0.57;;
78670;SDS011;68277;52.724;6.516;2023-04-25T07:46:46;1.02;;;0.70;;
78670;SDS011;68277;52.724;6.516;2023-04-25T07:49:12;0.93;;;0.47;;
78670;SDS011;68277;52.724;6.516;2023-04-25T07:51:39;1.83;;;0.70;;
78670;SDS011;68277;52.724;6.516;2023-04-25T07:54:09;3.10;;;0.95;;
78670;SDS011;68277;52.724;6.516;2023-04-25T07:56:42;1.45;;;0.80;;
78670;SDS011;68277;52.724;6.516;2023-04-25T07:59:08;1.05;;;0.77;;
78670;SDS011;68277;52.724;6.516;2023-04-25T08:01:34;4.35;;;1.05;;
78670;SDS011;68277;52.724;6.516;2023-04-25T08:04:02;1.52;;;0.68;;
78670;SDS011;68277;52.724;6.516;2023-04-25T08:06:47;8.13;;;0.68;;
78670;SDS011;68277;52.724;6.516;2023-04-25T08:09:21;3.83;;;0.77;;
78670;SDS011;68277;52.724;6.516;2023-04-25T08:11:47;2.22;;;0.65;;
78670;SDS011;68277;52.724;6.516;2023-04-25T08:14:16;2.75;;;0.60;;
78670;SDS011;68277;52.724;6.516;2023-04-25T08:16:43;7.45;;;1.25;;
78670;SDS011;68277;52.724;6.516;2023-04-25T08:19:10;1.25;;;0.73;;
78670;SDS011;68277;52.724;6.516;2023-04-25T08:21:36;4.95;;;1.15;;
78670;SDS011;68277;52.724;6.516;2023-04-25T08:24:05;2.90;;;1.00;;
78670;SDS011;68277;52.724;6.516;2023-04-25T08:26:34;6.55;;;1.33;;
78670;SDS011;68277;52.724;6.516;2023-04-25T08:29:02;1.58;;;0.60;;
78670;SDS011;68277;52.724;6.516;2023-04-25T08:31:27;1.98;;;0.70;;
78670;SDS011;68277;52.724;6.516;2023-04-25T08:33:57;1.73;;;1.00;;
78670;SDS011;68277;52.724;6.516;2023-04-25T08:36:31;3.58;;;0.93;;
78670;SDS011;68277;52.724;6.516;2023-04-25T08:38:59;2.70;;;0.75;;
78670;SDS011;68277;52.724;6.516;2023-04-25T08:41:25;1.88;;;0.38;;
78670;SDS011;68277;52.724;6.516;2023-04-25T08:43:52;0.43;;;0.32;;
78670;SDS011;68277;52.724;6.516;2023-04-25T08:46:18;3.15;;;0.75;;
78670;SDS011;68277;52.724;6.516;2023-04-25T08:48:56;2.55;;;0.40;;
78670;SDS011;68277;52.724;6.516;2023-04-25T08:51:26;2.47;;;0.73;;
78670;SDS011;68277;52.724;6.516;2023-04-25T08:53:53;4.40;;;0.70;;
78670;SDS011;68277;52.724;6.516;2023-04-25T08:56:19;3.10;;;0.90;;
78670;SDS011;68277;52.724;6.516;2023-04-25T08:58:48;6.15;;;0.70;;
78670;SDS011;68277;52.724;6.516;2023-04-25T09:01:17;1.95;;;0.40;;
78670;SDS011;68277;52.724;6.516;2023-04-25T09:03:48;1.27;;;0.50;;
78670;SDS011;68277;52.724;6.516;2023-04-25T09:06:14;1.15;;;0.93;;
78670;SDS011;68277;52.724;6.516;2023-04-25T09:08:42;1.58;;;0.77;;
78670;SDS011;68277;52.724;6.516;2023-04-25T09:11:08;3.13;;;0.60;;
78670;SDS011;68277;52.724;6.516;2023-04-25T09:13:34;2.30;;;0.95;;
78670;SDS011;68277;52.724;6.516;2023-04-25T09:16:22;1.20;;;0.55;;
78670;SDS011;68277;52.724;6.516;2023-04-25T09:19:20;4.70;;;0.80;;
78670;SDS011;68277;52.724;6.516;2023-04-25T09:21:51;2.15;;;1.05;;
78670;SDS011;68277;52.724;6.516;2023-04-25T09:27:02;6.60;;;1.08;;
78670;SDS011;68277;52.724;6.516;2023-04-25T09:29:32;4.53;;;1.10;;
78670;SDS011;68277;52.724;6.516;2023-04-25T09:34:54;1.25;;;0.80;;
78670;SDS011;68277;52.724;6.516;2023-04-25T09:37:23;3.13;;;0.65;;
78670;SDS011;68277;52.724;6.516;2023-04-25T09:40:22;4.30;;;1.25;;
78670;SDS011;68277;52.724;6.516;2023-04-25T09:42:55;1.48;;;0.65;;
78670;SDS011;68277;52.724;6.516;2023-04-25T09:45:23;3.20;;;0.80;;
78670;SDS011;68277;52.724;6.516;2023-04-25T09:47:48;1.60;;;0.80;;
78670;SDS011;68277;52.724;6.516;2023-04-25T09:50:20;3.67;;;0.88;;
78670;SDS011;68277;52.724;6.516;2023-04-25T09:53:04;3.10;;;0.50;;
78670;SDS011;68277;52.724;6.516;2023-04-25T09:55:45;2.58;;;0.82;;
78670;SDS011;68277;52.724;6.516;2023-04-25T09:58:11;2.30;;;0.75;;
78670;SDS011;68277;52.724;6.516;2023-04-25T10:00:37;3.72;;;0.93;;
78670;SDS011;68277;52.724;6.516;2023-04-25T10:03:17;2.92;;;0.77;;
78670;SDS011;68277;52.724;6.516;2023-04-25T10:06:12;2.35;;;0.70;;
78670;SDS011;68277;52.724;6.516;2023-04-25T10:08:43;1.83;;;0.73;;
78670;SDS011;68277;52.724;6.516;2023-04-25T10:11:10;4.72;;;1.10;;
78670;SDS011;68277;52.724;6.516;2023-04-25T10:13:39;0.90;;;0.60;;
78670;SDS011;68277;52.724;6.516;2023-04-25T10:16:05;2.70;;;0.73;;
78670;SDS011;68277;52.724;6.516;2023-04-25T10:18:32;4.22;;;0.93;;
78670;SDS011;68277;52.724;6.516;2023-04-25T10:20:58;3.40;;;1.55;;
78670;SDS011;68277;52.724;6.516;2023-04-25T10:23:26;2.75;;;1.05;;
78670;SDS011;68277;52.724;6.516;2023-04-25T10:25:53;3.45;;;0.65;;
78670;SDS011;68277;52.724;6.516;2023-04-25T10:28:19;3.75;;;0.80;;
78670;SDS011;68277;52.724;6.516;2023-04-25T10:33:37;3.05;;;1.00;;
78670;SDS011;68277;52.724;6.516;2023-04-25T10:36:08;3.38;;;1.20;;
78670;SDS011;68277;52.724;6.516;2023-04-25T10:38:42;3.50;;;0.70;;
78670;SDS011;68277;52.724;6.516;2023-04-25T10:41:08;5.97;;;1.15;;
78670;SDS011;68277;52.724;6.516;2023-04-25T10:43:39;5.15;;;0.88;;
78670;SDS011;68277;52.724;6.516;2023-04-25T10:46:19;1.98;;;0.80;;
78670;SDS011;68277;52.724;6.516;2023-04-25T10:48:54;2.58;;;0.70;;
78670;SDS011;68277;52.724;6.516;2023-04-25T10:51:22;5.13;;;0.80;;
78670;SDS011;68277;52.724;6.516;2023-04-25T10:56:22;3.40;;;0.68;;
78670;SDS011;68277;52.724;6.516;2023-04-25T10:58:48;3.00;;;0.98;;
78670;SDS011;68277;52.724;6.516;2023-04-25T11:01:15;3.47;;;1.25;;
78670;SDS011;68277;52.724;6.516;2023-04-25T11:03:46;1.50;;;0.52;;
78670;SDS011;68277;52.724;6.516;2023-04-25T11:09:25;2.38;;;0.68;;
78670;SDS011;68277;52.724;6.516;2023-04-25T11:11:55;1.67;;;0.75;;
78670;SDS011;68277;52.724;6.516;2023-04-25T11:14:23;4.70;;;0.80;;
78670;SDS011;68277;52.724;6.516;2023-04-25T11:16:55;5.70;;;1.02;;
78670;SDS011;68277;52.724;6.516;2023-04-25T11:19:25;4.35;;;0.90;;
78670;SDS011;68277;52.724;6.516;2023-04-25T11:21:55;4.35;;;1.45;;
78670;SDS011;68277;52.724;6.516;2023-04-25T11:24:25;2.47;;;0.70;;
78670;SDS011;68277;52.724;6.516;2023-04-25T11:26:55;1.20;;;0.82;;
78670;SDS011;68277;52.724;6.516;2023-04-25T11:29:23;3.17;;;0.80;;
78670;SDS011;68277;52.724;6.516;2023-04-25T11:31:52;3.50;;;0.50;;
78670;SDS011;68277;52.724;6.516;2023-04-25T11:34:21;5.10;;;0.70;;
78670;SDS011;68277;52.724;6.516;2023-04-25T11:36:47;5.75;;;0.70;;
78670;SDS011;68277;52.724;6.516;2023-04-25T11:39:12;1.42;;;0.45;;
78670;SDS011;68277;52.724;6.516;2023-04-25T11:41:40;3.95;;;0.82;;
78670;SDS011;68277;52.724;6.516;2023-04-25T11:44:07;4.28;;;0.98;;
78670;SDS011;68277;52.724;6.516;2023-04-25T11:46:36;2.10;;;0.80;;
78670;SDS011;68277;52.724;6.516;2023-04-25T11:49:01;1.67;;;0.73;;
78670;SDS011;68277;52.724;6.516;2023-04-25T11:51:27;2.50;;;0.60;;
78670;SDS011;68277;52.724;6.516;2023-04-25T11:53:55;2.47;;;1.10;;
78670;SDS011;68277;52.724;6.516;2023-04-25T11:56:20;3.13;;;1.00;;
78670;SDS011;68277;52.724;6.516;2023-04-25T12:01:26;4.00;;;0.98;;
78670;SDS011;68277;52.724;6.516;2023-04-25T12:04:10;1.15;;;0.50;;
78670;SDS011;68277;52.724;6.516;2023-04-25T12:06:39;3.25;;;0.77;;
78670;SDS011;68277;52.724;6.516;2023-04-25T12:09:11;3.70;;;0.68;;
78670;SDS011;68277;52.724;6.516;2023-04-25T12:11:44;3.05;;;0.63;;
78670;SDS011;68277;52.724;6.516;2023-04-25T12:14:12;5.13;;;1.05;;
78670;SDS011;68277;52.724;6.516;2023-04-25T12:16:46;2.33;;;0.75;;
78670;SDS011;68277;52.724;6.516;2023-04-25T12:19:13;4.85;;;0.80;;
78670;SDS011;68277;52.724;6.516;2023-04-25T12:21:40;5.93;;;1.02;;
78670;SDS011;68277;52.724;6.516;2023-04-25T12:24:13;5.35;;;1.48;;
78670;SDS011;68277;52.724;6.516;2023-04-25T12:29:17;5.75;;;0.82;;
78670;SDS011;68277;52.724;6.516;2023-04-25T12:31:44;1.85;;;0.95;;
78670;SDS011;68277;52.724;6.516;2023-04-25T12:34:10;5.70;;;1.02;;
78670;SDS011;68277;52.724;6.516;2023-04-25T12:36:36;0.68;;;0.40;;
78670;SDS011;68277;52.724;6.516;2023-04-25T12:39:01;1.00;;;0.70;;
78670;SDS011;68277;52.724;6.516;2023-04-25T12:41:31;2.30;;;0.68;;
78670;SDS011;68277;52.724;6.516;2023-04-25T12:43:56;3.85;;;0.90;;
78670;SDS011;68277;52.724;6.516;2023-04-25T12:46:22;3.08;;;0.90;;
78670;SDS011;68277;52.724;6.516;2023-04-25T12:48:50;3.97;;;0.90;;
78670;SDS011;68277;52.724;6.516;2023-04-25T12:51:15;5.90;;;1.10;;
78670;SDS011;68277;52.724;6.516;2023-04-25T12:53:41;2.22;;;0.95;;
78670;SDS011;68277;52.724;6.516;2023-04-25T12:56:07;4.18;;;0.88;;
78670;SDS011;68277;52.724;6.516;2023-04-25T12:58:33;1.70;;;0.85;;
78670;SDS011;68277;52.724;6.516;2023-04-25T13:00:58;2.50;;;1.08;;
78670;SDS011;68277;52.724;6.516;2023-04-25T13:03:24;4.75;;;0.73;;
78670;SDS011;68277;52.724;6.516;2023-04-25T13:05:50;2.15;;;0.70;;
78670;SDS011;68277;52.724;6.516;2023-04-25T13:08:20;3.95;;;0.70;;
78670;SDS011;68277;52.724;6.516;2023-04-25T13:10:49;2.13;;;0.98;;
78670;SDS011;68277;52.724;6.516;2023-04-25T13:13:15;5.63;;;0.98;;
78670;SDS011;68277;52.724;6.516;2023-04-25T13:15:41;4.53;;;1.17;;
78670;SDS011;68277;52.724;6.516;2023-04-25T13:18:07;3.08;;;0.82;;
78670;SDS011;68277;52.724;6.516;2023-04-25T13:20:32;4.57;;;0.70;;
78670;SDS011;68277;52.724;6.516;2023-04-25T13:22:58;4.43;;;1.00;;
78670;SDS011;68277;52.724;6.516;2023-04-25T13:25:24;2.65;;;0.80;;
78670;SDS011;68277;52.724;6.516;2023-04-25T13:27:50;2.45;;;0.60;;
78670;SDS011;68277;52.724;6.516;2023-04-25T13:30:15;1.08;;;0.63;;
78670;SDS011;68277;52.724;6.516;2023-04-25T13:32:41;2.78;;;0.60;;
78670;SDS011;68277;52.724;6.516;2023-04-25T13:35:16;0.77;;;0.35;;
78670;SDS011;68277;52.724;6.516;2023-04-25T13:37:42;0.80;;;0.50;;
78670;SDS011;68277;52.724;6.516;2023-04-25T13:40:08;0.95;;;0.55;;
78670;SDS011;68277;52.724;6.516;2023-04-25T13:42:36;2.58;;;1.02;;
78670;SDS011;68277;52.724;6.516;2023-04-25T13:45:02;4.53;;;0.90;;
78670;SDS011;68277;52.724;6.516;2023-04-25T13:47:28;3.63;;;0.88;;
78670;SDS011;68277;52.724;6.516;2023-04-25T13:52:20;4.85;;;0.80;;
78670;SDS011;68277;52.724;6.516;2023-04-25T13:54:46;2.92;;;0.60;;
78670;SDS011;68277;52.724;6.516;2023-04-25T13:57:12;5.60;;;1.02;;
78670;SDS011;68277;52.724;6.516;2023-04-25T13:59:38;3.20;;;0.57;;
78670;SDS011;68277;52.724;6.516;2023-04-25T14:02:03;4.30;;;0.75;;
78670;SDS011;68277;52.724;6.516;2023-04-25T14:04:29;6.07;;;1.40;;
78670;SDS011;68277;52.724;6.516;2023-04-25T14:06:55;0.80;;;0.60;;
78670;SDS011;68277;52.724;6.516;2023-04-25T14:09:21;2.75;;;0.57;;
78670;SDS011;68277;52.724;6.516;2023-04-25T14:11:51;2.45;;;0.70;;
78670;SDS011;68277;52.724;6.516;2023-04-25T14:14:17;4.25;;;0.60;;
78670;SDS011;68277;52.724;6.516;2023-04-25T14:16:43;4.07;;;0.90;;
78670;SDS011;68277;52.724;6.516;2023-04-25T14:19:09;2.47;;;0.63;;
78670;SDS011;68277;52.724;6.516;2023-04-25T14:21:34;2.15;;;1.10;;
78670;SDS011;68277;52.724;6.516;2023-04-25T14:24:00;7.90;;;1.30;;
78670;SDS011;68277;52.724;6.516;2023-04-25T14:26:25;1.75;;;0.70;;
78670;SDS011;68277;52.724;6.516;2023-04-25T14:28:51;3.10;;;0.80;;
78670;SDS011;68277;52.724;6.516;2023-04-25T14:31:18;6.25;;;0.75;;
78670;SDS011;68277;52.724;6.516;2023-04-25T14:33:44;1.83;;;0.50;;
78670;SDS011;68277;52.724;6.516;2023-04-25T14:36:10;2.10;;;1.20;;
78670;SDS011;68277;52.724;6.516;2023-04-25T14:38:36;3.22;;;0.75;;
78670;SDS011;68277;52.724;6.516;2023-04-25T14:41:01;0.75;;;0.50;;
78670;SDS011;68277;52.724;6.516;2023-04-25T14:43:27;5.63;;;1.20;;
78670;SDS011;68277;52.724;6.516;2023-04-25T14:45:53;1.38;;;0.75;;
78670;SDS011;68277;52.724;6.516;2023-04-25T14:48:18;2.50;;;0.80;;
78670;SDS011;68277;52.724;6.516;2023-04-25T14:50:44;1.73;;;0.90;;
78670;SDS011;68277;52.724;6.516;2023-04-25T14:53:10;3.30;;;0.80;;
78670;SDS011;68277;52.724;6.516;2023-04-25T14:55:39;2.28;;;0.82;;
78670;SDS011;68277;52.724;6.516;2023-04-25T14:58:05;4.35;;;1.17;;
78670;SDS011;68277;52.724;6.516;2023-04-25T15:00:32;4.82;;;1.15;;
78670;SDS011;68277;52.724;6.516;2023-04-25T15:02:58;11.13;;;1.10;;
78670;SDS011;68277;52.724;6.516;2023-04-25T15:05:23;3.83;;;0.98;;
78670;SDS011;68277;52.724;6.516;2023-04-25T15:07:49;9.98;;;0.95;;
78670;SDS011;68277;52.724;6.516;2023-04-25T15:10:16;1.38;;;0.90;;
78670;SDS011;68277;52.724;6.516;2023-04-25T15:12:43;5.10;;;0.85;;
78670;SDS011;68277;52.724;6.516;2023-04-25T15:15:09;3.08;;;1.05;;
78670;SDS011;68277;52.724;6.516;2023-04-25T15:17:37;1.15;;;0.60;;
78670;SDS011;68277;52.724;6.516;2023-04-25T15:20:05;2.75;;;0.80;;
78670;SDS011;68277;52.724;6.516;2023-04-25T15:22:32;2.70;;;1.42;;
78670;SDS011;68277;52.724;6.516;2023-04-25T15:24:58;4.45;;;0.88;;
78670;SDS011;68277;52.724;6.516;2023-04-25T15:27:23;1.65;;;0.65;;
78670;SDS011;68277;52.724;6.516;2023-04-25T15:29:52;1.48;;;0.47;;